THUNDERSTORM

Not for real navigation. The accuracy of this data is not assured See disclaimer for more information



ICAO NAME COUNTRY WIND Kt GUST Kt VIS m TEMP/DEW C BARO METAR
KUVA Uvalde, Garner Field Airport TX United States 8 44 800 22/21 29.98 KUVA 160607Z AUTO 05008G44KT 0.5SM TS 22/21 A2998 RMK AO2 LTG NOOP ALQDS P0019 T02150208
KIIY Washington, Washington-Wilkes GA United States 0 0 1600 17/16 29.91 KIIY 160615Z AUTO 00000KT 1 0.25SM BR OVC001 17/16 A2991 RMK AO2 TS
KDLF Laughlin, Laughlin Air Force B TX United States 0 0 1600 21/20 29.99 KDLF 160625Z 00000KT 1 0.25SM +RA BR VCTS OVC041 21/20 A2999 RMK AO2A VIS 5/8V1 1/4 TSE25 TS 7E MOV
VGHS 10 0 2500 27/24 29.94 VGHS 160600Z 11010KT 2500 HZ BKN010 FEW025CB BKN100 27/24 Q1014 TEMPO TSRA
VOVZ 4 0 3000 26/25 29.94 VOVZ 160600Z 07004KT 3000 -TSRA FEW012 FEW025CB OVC080 26/25 Q1014 TEMPO 2000 TSRA

Show more